Data for 03/19/2015

Time Sea-Level Adjusted Pressure Absolute Pressure Temperature Relative Humidity Dew Point   
(mb) (inHg) (mb) (inHg) (C) (F) (%) (C) (F)
00:05 1022 30.18 851 25.13 2.8 37.1 61 -3.9 24.9
00:10 1022 30.18 851 25.13 2.7 36.8 62 -3.9 24.9
00:15 1022 30.18 851 25.13 2.8 37.1 61 -4 24.7
00:20 1022 30.18 851 25.13 2.9 37.3 61 -3.9 24.9
00:25 1022 30.18 851 25.13 2.8 37.1 60 -4.2 24.5
00:30 1022 30.18 851 25.13 2.7 36.9 60 -4.2 24.5
00:35 1022 30.18 851 25.13 2.6 36.8 61 -4.2 24.4
00:40 1022 30.18 851 25.13 2.5 36.5 61 -4.3 24.2
00:45 1022 30.18 851 25.13 2.3 36.2 61 -4.5 23.9
00:50 1022 30.18 851 25.13 2.2 36 61 -4.5 23.9
00:55 1022 30.18 851 25.13 2.1 35.7 62 -4.5 23.8
01:00 1022 30.18 851 25.13 1.9 35.5 62 -4.7 23.6
01:05 1022 30.18 851 25.13 1.9 35.4 61 -4.9 23.3
01:10 1022 30.18 851 25.13 2 35.5 61 -4.8 23.3
01:15 1022 30.18 851 25.13 2 35.6 61 -4.8 23.4
01:20 1022 30.18 852 25.16 2.1 35.7 60 -4.9 23.3
01:25 1022 30.18 852 25.16 2 35.7 61 -4.8 23.3
01:30 1022 30.18 852 25.16 2 35.6 60 -4.8 23.3
01:35 1022 30.18 852 25.16 2 35.6 61 -4.8 23.3
01:40 1023 30.21 852 25.16 1.8 35.2 62 -4.8 23.3
01:45 1022 30.18 852 25.16 1.6 34.9 62 -4.9 23.2
01:50 1023 30.21 852 25.16 1.6 34.9 62 -4.9 23.2
01:55 1023 30.21 852 25.16 1.7 35 62 -4.8 23.3
02:00 1023 30.21 852 25.16 1.5 34.7 63 -4.8 23.3
02:05 1023 30.21 852 25.16 1.5 34.6 63 -4.9 23.2
02:10 1023 30.21 852 25.16 1.5 34.7 62 -5 23.1
02:15 1023 30.21 852 25.16 1.5 34.8 63 -4.8 23.3
02:20 1023 30.21 852 25.16 1.4 34.5 63 -4.9 23.3
02:25 1023 30.21 852 25.16 1.3 34.3 63 -4.9 23.1
02:30 1023 30.21 852 25.16 1.3 34.3 63 -5 23
02:35 1023 30.21 852 25.16 1.5 34.7 62 -5 23
02:40 1023 30.21 852 25.16 1.8 35.2 61 -4.9 23.1
02:45 1023 30.21 852 25.16 1.8 35.2 61 -4.9 23.2
02:50 1023 30.21 852 25.16 1.8 35.2 61 -4.9 23.2
02:55 1023 30.21 852 25.16 1.9 35.4 61 -4.9 23.1
03:00 1023 30.21 852 25.16 1.9 35.5 61 -4.9 23.2
03:05 1023 30.21 852 25.16 1.9 35.5 60 -4.9 23.1
03:10 1023 30.21 852 25.16 2 35.6 59 -5.2 22.6
03:15 1023 30.21 852 25.16 1.9 35.5 60 -5 23
03:20 1023 30.21 852 25.16 1.7 35 62 -5 23.1
03:25 1023 30.21 852 25.16 1.5 34.8 62 -5 23
03:30 1023 30.21 852 25.16 1.4 34.6 62 -5 22.9
03:35 1023 30.21 852 25.16 1.4 34.6 61 -5.2 22.6
03:40 1023 30.21 852 25.16 1.6 34.8 62 -5 22.9
03:45 1023 30.21 852 25.16 1.6 34.9 60 -5.2 22.6
03:50 1023 30.21 852 25.16 1.8 35.3 59 -5.4 22.4
03:55 1023 30.21 852 25.16 1.9 35.4 59 -5.2 22.6
04:00 1023 30.21 852 25.16 1.8 35.3 60 -5.2 22.6
04:05 1023 30.21 852 25.16 1.7 35.1 60 -5.3 22.5
04:10 1023 30.21 852 25.16 1.6 34.9 60 -5.3 22.4
04:15 1023 30.21 852 25.16 1.7 35 60 -5.3 22.5
04:20 1023 30.21 852 25.16 1.7 35 60 -5.4 22.3
04:25 1023 30.21 852 25.16 1.7 35 61 -5.1 22.8
04:30 1023 30.21 852 25.16 1.6 34.9 61 -5.2 22.7
04:35 1023 30.21 852 25.16 1.7 35 61 -5.1 22.9
04:40 1023 30.21 852 25.16 1.7 35.1 61 -5 23.1
04:45 1023 30.21 852 25.16 1.7 35.1 62 -4.9 23.2
04:50 1023 30.21 852 25.16 1.8 35.2 62 -4.8 23.4
04:55 1023 30.21 853 25.19 1.7 35.1 62 -4.8 23.3
05:00 1023 30.21 852 25.16 1.7 35 62 -4.8 23.3
05:05 1023 30.21 852 25.16 1.6 34.9 62 -4.9 23.2
05:10 1023 30.21 852 25.16 1.7 35 61 -5 23
05:15 1023 30.21 852 25.16 1.8 35.3 61 -4.9 23.2
05:20 1023 30.21 852 25.16 1.7 35 61 -5 23.1
05:25 1023 30.21 852 25.16 1.6 34.8 62 -4.9 23.1
05:30 1023 30.21 852 25.16 1.4 34.5 62 -5.1 22.9
05:35 1023 30.21 852 25.16 1.3 34.3 63 -5.1 22.9
05:40 1023 30.21 852 25.16 1.1 33.9 63 -5.2 22.6
05:45 1023 30.21 852 25.16 1.2 34.1 61 -5.5 22
05:50 1023 30.21 852 25.16 1.5 34.7 60 -5.5 22.2
05:55 1023 30.21 852 25.16 1.6 34.9 59 -5.4 22.2
06:00 1023 30.21 852 25.16 1.7 35 59 -5.5 22.2
06:05 1023 30.21 852 25.16 1.6 35 60 -5.4 22.3
06:10 1023 30.21 852 25.16 1.5 34.6 60 -5.4 22.2
06:15 1023 30.21 852 25.16 1.5 34.7 59 -5.6 22
06:20 1023 30.21 852 25.16 1.5 34.6 59 -5.6 22
06:25 1023 30.21 852 25.16 1.4 34.6 60 -5.5 22.1
06:30 1023 30.21 852 25.16 1.4 34.6 60 -5.6 21.9
06:35 1023 30.21 852 25.16 1.4 34.5 60 -5.6 22
06:40 1023 30.21 852 25.16 1.2 34.2 62 -5.3 22.4
06:45 1023 30.21 852 25.16 0.9 33.7 62 -5.6 21.9
06:50 1023 30.21 852 25.16 1.1 34 61 -5.6 21.9
06:55 1023 30.21 852 25.16 1.2 34.2 62 -5.2 22.7
07:00 1023 30.21 852 25.16 1 33.9 62 -5.4 22.3
07:05 1023 30.21 852 25.16 1.2 34.2 61 -5.6 21.9
07:10 1023 30.21 852 25.16 1.7 35 59 -5.5 22.1
07:15 1023 30.21 852 25.16 1.8 35.3 59 -5.4 22.3
07:20 1023 30.21 852 25.16 2.3 36.1 58 -5.2 22.6
07:25 1023 30.21 852 25.16 2.9 37.2 57 -4.8 23.4
07:30 1023 30.21 852 25.16 2.9 37.2 57 -4.9 23.2
07:35 1023 30.21 852 25.16 3.2 37.8 55 -5 23
07:40 1023 30.21 852 25.16 3.3 38 55 -4.9 23.1
07:45 1023 30.21 852 25.16 3.6 38.4 53 -5.2 22.6
07:50 1023 30.21 852 25.16 3.6 38.6 53 -5.2 22.7
07:55 1023 30.21 852 25.16 3.8 38.8 51 -5.3 22.5
08:00 1023 30.21 852 25.16 4.2 39.5 51 -5.1 22.9
08:05 1023 30.21 852 25.16 4.2 39.6 48 -5.7 21.7
08:10 1023 30.21 852 25.16 4.2 39.6 52 -4.9 23.2
08:15 1023 30.21 852 25.16 3.9 39 51 -5.3 22.5
08:20 1023 30.21 852 25.16 4.3 39.8 51 -4.9 23.2
08:25 1023 30.21 852 25.16 4 39.2 51 -5.3 22.5
08:30 1023 30.21 852 25.16 4.8 40.6 48 -5.4 22.3
08:35 1023 30.21 853 25.19 5.3 41.5 47 -5.2 22.6
08:40 1023 30.21 853 25.19 5.5 41.9 48 -4.7 23.6
08:45 1023 30.21 853 25.19 5.1 41.3 48 -5.1 22.8
08:50 1023 30.21 853 25.19 4.9 40.9 49 -4.8 23.4
08:55 1023 30.21 853 25.19 5 40.9 48 -5.2 22.6
09:00 1023 30.21 853 25.19 6.1 42.9 44 -5.3 22.5
09:05 1023 30.21 853 25.19 5.8 42.5 45 -5.1 22.7
09:10 1024 30.24 853 25.19 6.1 43 44 -5.2 22.7
09:15 1024 30.24 853 25.19 5.6 42.1 47 -5 23.1
09:20 1024 30.24 853 25.19 6.3 43.3 43 -5.4 22.2
09:25 1024 30.24 853 25.19 6.8 44.3 40 -5.7 21.7
09:30 1024 30.24 853 25.19 7.3 45.1 39 -5.6 21.9
09:35 1024 30.24 853 25.19 7.6 45.6 39 -5.5 22.1
09:40 1024 30.24 853 25.19 8 46.4 38 -5.5 22.1
09:45 1024 30.24 853 25.19 7.9 46.2 38 -5.7 21.8
09:50 1023 30.21 853 25.19 7.8 46.1 37 -5.9 21.4
09:55 1023 30.21 853 25.19 7.4 45.4 37 -6.4 20.4
10:00 1023 30.21 853 25.19 7.7 45.8 35 -6.8 19.8
10:05 1023 30.21 853 25.19 8 46.4 34 -6.8 19.8
10:10 1023 30.21 853 25.19 8 46.5 34 -6.8 19.7
10:15 1023 30.21 852 25.16 8.3 47 34 -6.6 20.1
10:20 1023 30.21 852 25.16 8.1 46.6 33 -7.1 19.3
10:25 1023 30.21 852 25.16 8.1 46.6 34 -6.8 19.7
10:30 1023 30.21 852 25.16 8.1 46.6 34 -6.7 20
10:35 1023 30.21 852 25.16 8.1 46.5 32 -7.5 18.5
10:40 1023 30.21 852 25.16 8.6 47.5 31 -7.4 18.7
10:45 1023 30.21 852 25.16 8.4 47.2 32 -7.3 18.9
10:50 1023 30.21 852 25.16 8.2 46.7 32 -7.4 18.7
10:55 1023 30.21 852 25.16 8.5 47.2 32 -7.5 18.6
11:00 1023 30.21 852 25.16 8.7 47.6 32 -7.1 19.3
11:05 1023 30.21 852 25.16 8.4 47.1 33 -7 19.4
11:10 1023 30.21 852 25.16 9.2 48.5 30 -7.3 18.8
11:15 1023 30.21 852 25.16 8.9 48 31 -7.3 18.8
11:20 1023 30.21 852 25.16 9.2 48.5 31 -7.1 19.3
11:25 1023 30.21 852 25.16 8.7 47.7 32 -6.9 19.6
11:30 1023 30.21 852 25.16 8.7 47.6 32 -7.1 19.3
11:35 1022 30.18 852 25.16 9.4 48.8 30 -7.3 18.8
11:40 1022 30.18 852 25.16 9.4 48.9 31 -7 19.5
11:45 1022 30.18 852 25.16 9.5 49.1 33 -6 21.1
11:50 1022 30.18 851 25.13 9.1 48.3 31 -7.1 19.3
11:55 1022 30.18 851 25.13 9.2 48.5 30 -7.5 18.5
12:00 1022 30.18 851 25.13 10.5 51 28 -7.1 19.1
12:05 1022 30.18 851 25.13 10.1 50.1 30 -6.8 19.8
12:10 1022 30.18 851 25.13 8.9 48 31 -7.5 18.4
12:15 1022 30.18 851 25.13 9.3 48.8 29 -7.9 17.9
12:20 1022 30.18 851 25.13 10.4 50.7 28 -7.4 18.7
12:25 1022 30.18 851 25.13 11.1 52 27 -7.1 19.1
12:30 1022 30.18 851 25.13 11.3 52.3 26 -7.5 18.5
12:35 1022 30.18 851 25.13 11.4 52.6 27 -7.1 19.2
12:40 1022 30.18 851 25.13 12 53.5 25 -7.3 18.9
12:45 1022 30.18 851 25.13 12.1 53.7 26 -6.9 19.5
12:50 1021 30.15 851 25.13 11.3 52.3 26 -7.5 18.5
12:55 1021 30.15 851 25.13 11.2 52.1 27 -7.1 19.2
13:00 1021 30.15 850 25.1 11.5 52.8 27 -6.9 19.5
13:05 1021 30.15 850 25.1 11.7 53.1 26 -7 19.4
13:10 1021 30.15 850 25.1 11.6 52.9 27 -6.6 20.1
13:15 1021 30.15 850 25.1 11.1 52 27 -7.1 19.2
13:20 1021 30.15 850 25.1 11.5 52.7 26 -7.2 19
13:25 1021 30.15 850 25.1 12.6 54.7 25 -7 19.5
13:30 1021 30.15 850 25.1 12.6 54.6 25 -7 19.5
13:35 1021 30.15 850 25.1 12 53.6 27 -6.6 20.2
13:40 1021 30.15 850 25.1 11.6 52.9 25 -7.5 18.5
13:45 1021 30.15 850 25.1 12.3 54.1 24 -7.9 17.8
13:50 1020 30.12 850 25.1 12.2 53.9 24 -7.6 18.4
13:55 1020 30.12 850 25.1 12.1 53.9 25 -7.2 19
14:00 1020 30.12 850 25.1 12.4 54.4 23 -8.1 17.4
14:05 1020 30.12 850 25.1 11.9 53.4 25 -7.7 18.1
14:10 1020 30.12 850 25.1 12.2 53.9 24 -7.6 18.4
14:15 1020 30.12 850 25.1 11.6 52.8 25 -7.5 18.4
14:20 1020 30.12 849 25.07 12.4 54.3 24 -7.6 18.3
14:25 1020 30.12 849 25.07 12.7 54.9 23 -7.7 18.2
14:30 1020 30.12 849 25.07 13.3 55.9 22 -7.8 18
14:35 1020 30.12 849 25.07 12.9 55.3 23 -7.6 18.4
14:40 1020 30.12 849 25.07 13.1 55.6 23 -7.8 18
14:45 1020 30.12 849 25.07 12.7 54.9 24 -7.6 18.4
14:50 1020 30.12 849 25.07 13.2 55.8 22 -8.1 17.5
14:55 1020 30.12 849 25.07 13 55.3 23 -7.4 18.7
15:00 1020 30.12 849 25.07 12.7 54.8 23 -7.6 18.3
15:05 1020 30.12 849 25.07 13.2 55.8 22 -7.7 18.1
15:10 1020 30.12 849 25.07 13.3 56 22 -7.6 18.3
15:15 1020 30.12 849 25.07 13.8 56.8 22 -7.4 18.7
15:20 1020 30.12 849 25.07 13.5 56.2 23 -7.5 18.5
15:25 1020 30.12 849 25.07 13.5 56.4 23 -7.1 19.3
15:30 1020 30.12 849 25.07 13.2 55.8 23 -7.5 18.5
15:35 1020 30.12 849 25.07 13.6 56.4 23 -7.2 19.1
15:40 1020 30.12 849 25.07 13.2 55.7 24 -6.6 20.1
15:45 1020 30.12 849 25.07 13.3 55.9 23 -7.4 18.7
15:50 1020 30.12 849 25.07 13.6 56.4 23 -7.4 18.7
15:55 1020 30.12 849 25.07 13.2 55.8 24 -6.8 19.8
16:00 1019 30.09 849 25.07 13.1 55.6 23 -7.6 18.4
16:05 1019 30.09 849 25.07 13.5 56.2 23 -7 19.5
16:10 1019 30.09 848 25.04 13.2 55.7 23 -7.3 18.9
16:15 1019 30.09 848 25.04 13.4 56.2 23 -7.1 19.2
16:20 1019 30.09 848 25.04 14.3 57.7 22 -6.9 19.5
16:25 1019 30.09 848 25.04 14.3 57.8 23 -6.7 20
16:30 1019 30.09 848 25.04 14.7 58.5 22 -6.8 19.8
16:35 1019 30.09 848 25.04 14.6 58.3 22 -6.5 20.2
16:40 1019 30.09 848 25.04 14.6 58.2 22 -7.1 19.2
16:45 1019 30.09 848 25.04 14.3 57.7 23 -6.7 20
16:50 1019 30.09 848 25.04 13.9 56.9 23 -6.7 19.9
16:55 1019 30.09 848 25.04 13.5 56.2 24 -6.7 19.9
17:00 1019 30.09 848 25.04 13.1 55.6 24 -6.7 19.9
17:05 1019 30.09 848 25.04 13.1 55.6 25 -6.3 20.6
17:10 1019 30.09 848 25.04 12.9 55.2 25 -6.6 20.2
17:15 1019 30.09 848 25.04 12.7 54.8 25 -6.7 19.9
17:20 1019 30.09 848 25.04 12.6 54.6 25 -6.8 19.7
17:25 1019 30.09 848 25.04 12.9 55.3 24 -6.9 19.5
17:30 1018 30.06 848 25.04 13.6 56.4 24 -6.8 19.8
17:35 1019 30.09 848 25.04 13.5 56.3 23 -6.9 19.5
17:40 1019 30.09 848 25.04 13.4 56.1 24 -6.5 20.3
17:45 1019 30.09 848 25.04 13 55.3 25 -6.4 20.4
17:50 1018 30.06 848 25.04 12.6 54.7 26 -6.5 20.3
17:55 1019 30.09 848 25.04 12.3 54.1 27 -6.4 20.5
18:00 1019 30.09 848 25.04 11.9 53.4 27 -6.5 20.3
18:05 1018 30.06 848 25.04 11.6 53 27 -6.5 20.2
18:10 1018 30.06 848 25.04 11.5 52.6 27 -6.6 20.1
18:15 1018 30.06 848 25.04 11.3 52.3 28 -6.7 20
18:20 1018 30.06 848 25.04 11.2 52.2 29 -6.4 20.6
18:25 1018 30.06 848 25.04 11.3 52.3 28 -6.7 20
18:30 1018 30.06 848 25.04 11.2 52.2 29 -6.3 20.6
18:35 1018 30.06 847 25.01 11.1 52 28 -6.5 20.2
18:40 1018 30.06 847 25.01 11.1 52 29 -6.3 20.6
18:45 1018 30.06 847 25.01 11.2 52.1 29 -6.1 21.1
18:50 1018 30.06 847 25.01 11.1 52 29 -6.4 20.5
18:55 1018 30.06 847 25.01 11 51.8 29 -6.3 20.6
19:00 1018 30.06 847 25.01 11 51.8 28 -6.7 20
19:05 1018 30.06 847 25.01 11 51.8 28 -6.8 19.7
19:10 1018 30.06 847 25.01 11.1 52 27 -7.3 18.9
19:15 1018 30.06 847 25.01 11.2 52.2 26 -7.5 18.5
19:20 1018 30.06 847 25.01 11.3 52.3 26 -7.4 18.6
19:25 1018 30.06 847 25.01 10.9 51.6 26 -7.6 18.2
19:30 1018 30.06 847 25.01 10.7 51.3 27 -7.6 18.3
19:35 1018 30.06 847 25.01 10.5 50.8 28 -7.4 18.7
19:40 1018 30.06 847 25.01 10.1 50.2 28 -7.4 18.6
19:45 1018 30.06 847 25.01 9.8 49.7 28 -7.7 18.2
19:50 1018 30.06 847 25.01 9.9 49.8 29 -7.5 18.5
19:55 1018 30.06 847 25.01 9.8 49.7 30 -6.7 19.9
20:00 1018 30.06 847 25.01 9.5 49.1 31 -6.7 19.9
20:05 1018 30.06 847 25.01 9.3 48.8 32 -6.6 20.2
20:10 1018 30.06 847 25.01 9 48.3 33 -6.4 20.5
20:15 1018 30.06 847 25.01 8.4 47.2 35 -6 21.2
20:20 1018 30.06 847 25.01 8.1 46.5 38 -5.4 22.3
20:25 1018 30.06 847 25.01 7.8 46 39 -5.5 22.1
20:30 1018 30.06 847 25.01 8 46.3 37 -5.7 21.7
20:35 1018 30.06 847 25.01 8.4 47.2 35 -6.3 20.7
20:40 1018 30.06 847 25.01 8.9 48 31 -7.3 18.8
20:45 1018 30.06 848 25.04 9.6 49.3 26 -8.9 16
20:50 1018 30.06 848 25.04 10.7 51.3 24 -8.9 15.9
20:55 1018 30.06 848 25.04 11 51.8 25 -8.5 16.8
21:00 1019 30.09 848 25.04 10.9 51.6 25 -8.2 17.3
21:05 1019 30.09 848 25.04 10.8 51.4 28 -6.9 19.6
21:10 1019 30.09 848 25.04 10.3 50.5 29 -6.9 19.6
21:15 1019 30.09 848 25.04 9.9 49.9 28 -7.5 18.4
21:20 1019 30.09 848 25.04 10 50 29 -7.1 19.3
21:25 1019 30.09 848 25.04 9.9 49.9 29 -7.4 18.7
21:30 1019 30.09 848 25.04 9.9 49.9 28 -7.7 18.1
21:35 1019 30.09 848 25.04 10.2 50.3 27 -8 17.6
21:40 1019 30.09 848 25.04 10.3 50.5 27 -7.9 17.7
21:45 1019 30.09 848 25.04 10.2 50.3 28 -7.7 18.1
21:50 1019 30.09 848 25.04 10 50 28 -7.6 18.4
21:55 1019 30.09 848 25.04 9.8 49.6 29 -7.6 18.3
22:00 1019 30.09 848 25.04 9.6 49.3 29 -7.6 18.3
22:05 1019 30.09 848 25.04 9.5 49.1 29 -7.5 18.4
22:10 1019 30.09 848 25.04 9.4 48.9 30 -7.4 18.6
22:15 1019 30.09 848 25.04 9.3 48.7 31 -7 19.3
22:20 1019 30.09 848 25.04 8.9 48.1 31 -7.1 19.2
22:25 1019 30.09 848 25.04 8.8 47.8 32 -7.1 19.2
22:30 1019 30.09 848 25.04 8.6 47.4 32 -7.3 18.9
22:35 1019 30.09 848 25.04 8.5 47.3 32 -7.3 18.9
22:40 1019 30.09 848 25.04 8.5 47.4 32 -7.3 18.8
22:45 1019 30.09 848 25.04 8.6 47.5 32 -7.3 18.9
22:50 1019 30.09 848 25.04 8.5 47.4 32 -7.3 18.8
22:55 1019 30.09 849 25.07 8.5 47.3 32 -7.3 18.9
23:00 1019 30.09 849 25.07 8.4 47.1 32 -7.2 19.1
23:05 1019 30.09 849 25.07 8.3 46.9 32 -7.3 18.8
23:10 1019 30.09 849 25.07 8.3 46.9 32 -7.4 18.7
23:15 1019 30.09 849 25.07 8.2 46.8 32 -7.4 18.7
23:20 1020 30.12 849 25.07 8.3 46.9 32 -7.4 18.7
23:25 1020 30.12 849 25.07 8.2 46.8 32 -7.3 18.8
23:30 1020 30.12 849 25.07 8.1 46.7 33 -7.3 18.9
23:35 1020 30.12 849 25.07 7.9 46.2 34 -7.1 19.1
23:40 1020 30.12 849 25.07 7.8 46 33 -7.4 18.7
23:45 1020 30.12 849 25.07 7.9 46.2 34 -7.1 19.3
23:50 1020 30.12 849 25.07 7.6 45.6 35 -6.8 19.8
23:55 1020 30.12 849 25.07 7.1 44.9 37 -6.5 20.3
24:00 1020 30.12 849 25.07 6.8 44.3 38 -6.6 20.1